sensor_id;sensor_type;location;lat;lon;timestamp;P1;durP1;ratioP1;P2;durP2;ratioP2
3121;SDS011;1571;52.524;14.104;2023-07-08T00:01:08;4.50;;;4.20;;
3121;SDS011;1571;52.524;14.104;2023-07-08T00:03:41;4.90;;;4.50;;
3121;SDS011;1571;52.524;14.104;2023-07-08T00:06:11;5.53;;;5.03;;
3121;SDS011;1571;52.524;14.104;2023-07-08T00:08:45;4.87;;;4.50;;
3121;SDS011;1571;52.524;14.104;2023-07-08T00:11:14;6.20;;;5.37;;
3121;SDS011;1571;52.524;14.104;2023-07-08T00:13:43;5.50;;;5.00;;
3121;SDS011;1571;52.524;14.104;2023-07-08T00:16:15;5.43;;;5.13;;
3121;SDS011;1571;52.524;14.104;2023-07-08T00:18:46;7.03;;;4.23;;
3121;SDS011;1571;52.524;14.104;2023-07-08T00:21:16;6.10;;;5.23;;
3121;SDS011;1571;52.524;14.104;2023-07-08T00:23:46;6.03;;;4.63;;
3121;SDS011;1571;52.524;14.104;2023-07-08T00:26:17;5.27;;;4.87;;
3121;SDS011;1571;52.524;14.104;2023-07-08T00:28:49;6.37;;;5.53;;
3121;SDS011;1571;52.524;14.104;2023-07-08T00:31:19;5.70;;;5.13;;
3121;SDS011;1571;52.524;14.104;2023-07-08T00:33:52;5.27;;;4.87;;
3121;SDS011;1571;52.524;14.104;2023-07-08T00:36:23;5.60;;;5.00;;
3121;SDS011;1571;52.524;14.104;2023-07-08T00:38:53;6.00;;;5.50;;
3121;SDS011;1571;52.524;14.104;2023-07-08T00:41:22;5.03;;;4.63;;
3121;SDS011;1571;52.524;14.104;2023-07-08T00:43:56;5.00;;;4.60;;
3121;SDS011;1571;52.524;14.104;2023-07-08T00:46:31;5.17;;;4.80;;
3121;SDS011;1571;52.524;14.104;2023-07-08T00:49:11;5.87;;;5.40;;
3121;SDS011;1571;52.524;14.104;2023-07-08T00:51:49;6.17;;;5.70;;
3121;SDS011;1571;52.524;14.104;2023-07-08T00:54:18;4.83;;;4.33;;
3121;SDS011;1571;52.524;14.104;2023-07-08T00:56:47;6.57;;;5.87;;
3121;SDS011;1571;52.524;14.104;2023-07-08T00:59:21;6.07;;;5.37;;
3121;SDS011;1571;52.524;14.104;2023-07-08T01:01:54;5.40;;;5.00;;
3121;SDS011;1571;52.524;14.104;2023-07-08T01:04:25;6.10;;;5.60;;
3121;SDS011;1571;52.524;14.104;2023-07-08T01:06:58;5.27;;;4.90;;
3121;SDS011;1571;52.524;14.104;2023-07-08T01:09:36;5.90;;;5.50;;
3121;SDS011;1571;52.524;14.104;2023-07-08T01:12:10;5.40;;;5.00;;
3121;SDS011;1571;52.524;14.104;2023-07-08T01:14:42;6.80;;;5.60;;
3121;SDS011;1571;52.524;14.104;2023-07-08T01:17:13;7.37;;;5.93;;
3121;SDS011;1571;52.524;14.104;2023-07-08T01:19:41;5.40;;;4.90;;
3121;SDS011;1571;52.524;14.104;2023-07-08T01:22:12;5.93;;;5.23;;
3121;SDS011;1571;52.524;14.104;2023-07-08T01:24:42;6.30;;;5.90;;
3121;SDS011;1571;52.524;14.104;2023-07-08T01:27:12;6.40;;;5.90;;
3121;SDS011;1571;52.524;14.104;2023-07-08T01:29:44;6.87;;;6.20;;
3121;SDS011;1571;52.524;14.104;2023-07-08T01:32:13;6.03;;;5.60;;
3121;SDS011;1571;52.524;14.104;2023-07-08T01:34:45;6.00;;;5.40;;
3121;SDS011;1571;52.524;14.104;2023-07-08T01:37:34;5.97;;;5.47;;
3121;SDS011;1571;52.524;14.104;2023-07-08T01:40:14;6.23;;;5.83;;
3121;SDS011;1571;52.524;14.104;2023-07-08T01:42:44;6.17;;;5.50;;
3121;SDS011;1571;52.524;14.104;2023-07-08T01:45:13;9.10;;;6.77;;
3121;SDS011;1571;52.524;14.104;2023-07-08T01:47:42;6.80;;;6.30;;
3121;SDS011;1571;52.524;14.104;2023-07-08T01:50:16;5.83;;;5.50;;
3121;SDS011;1571;52.524;14.104;2023-07-08T01:52:48;7.77;;;6.50;;
3121;SDS011;1571;52.524;14.104;2023-07-08T01:55:20;6.83;;;6.20;;
3121;SDS011;1571;52.524;14.104;2023-07-08T01:57:50;7.20;;;6.60;;
3121;SDS011;1571;52.524;14.104;2023-07-08T02:00:20;7.43;;;6.73;;
3121;SDS011;1571;52.524;14.104;2023-07-08T02:02:50;5.63;;;5.23;;
3121;SDS011;1571;52.524;14.104;2023-07-08T02:05:19;7.20;;;6.50;;
3121;SDS011;1571;52.524;14.104;2023-07-08T02:07:49;6.53;;;6.00;;
3121;SDS011;1571;52.524;14.104;2023-07-08T02:10:17;6.63;;;6.10;;
3121;SDS011;1571;52.524;14.104;2023-07-08T02:12:45;6.93;;;6.33;;
3121;SDS011;1571;52.524;14.104;2023-07-08T02:15:13;7.53;;;6.90;;
3121;SDS011;1571;52.524;14.104;2023-07-08T02:17:41;7.53;;;6.83;;
3121;SDS011;1571;52.524;14.104;2023-07-08T02:20:10;7.37;;;6.67;;
3121;SDS011;1571;52.524;14.104;2023-07-08T02:22:39;7.87;;;7.23;;
3121;SDS011;1571;52.524;14.104;2023-07-08T02:25:09;7.20;;;6.70;;
3121;SDS011;1571;52.524;14.104;2023-07-08T02:27:38;5.90;;;5.40;;
3121;SDS011;1571;52.524;14.104;2023-07-08T02:30:06;7.47;;;6.80;;
3121;SDS011;1571;52.524;14.104;2023-07-08T02:32:36;7.00;;;6.40;;
3121;SDS011;1571;52.524;14.104;2023-07-08T02:35:06;5.90;;;5.60;;
3121;SDS011;1571;52.524;14.104;2023-07-08T02:37:35;6.70;;;6.30;;
3121;SDS011;1571;52.524;14.104;2023-07-08T02:40:04;7.40;;;6.83;;
3121;SDS011;1571;52.524;14.104;2023-07-08T02:42:34;7.13;;;6.63;;
3121;SDS011;1571;52.524;14.104;2023-07-08T02:45:04;6.53;;;6.03;;
3121;SDS011;1571;52.524;14.104;2023-07-08T02:47:33;8.30;;;6.23;;
3121;SDS011;1571;52.524;14.104;2023-07-08T02:50:01;6.60;;;5.90;;
3121;SDS011;1571;52.524;14.104;2023-07-08T02:52:31;8.40;;;6.80;;
3121;SDS011;1571;52.524;14.104;2023-07-08T02:54:59;7.60;;;6.90;;
3121;SDS011;1571;52.524;14.104;2023-07-08T02:57:28;8.57;;;6.43;;
3121;SDS011;1571;52.524;14.104;2023-07-08T02:59:57;6.23;;;5.80;;
3121;SDS011;1571;52.524;14.104;2023-07-08T03:02:26;7.10;;;6.50;;
3121;SDS011;1571;52.524;14.104;2023-07-08T03:04:54;7.63;;;7.00;;
3121;SDS011;1571;52.524;14.104;2023-07-08T03:07:25;7.83;;;7.20;;
3121;SDS011;1571;52.524;14.104;2023-07-08T03:09:54;6.80;;;6.40;;
3121;SDS011;1571;52.524;14.104;2023-07-08T03:12:22;8.10;;;7.50;;
3121;SDS011;1571;52.524;14.104;2023-07-08T03:14:51;7.60;;;7.00;;
3121;SDS011;1571;52.524;14.104;2023-07-08T03:17:20;7.93;;;7.23;;
3121;SDS011;1571;52.524;14.104;2023-07-08T03:19:49;7.77;;;7.10;;
3121;SDS011;1571;52.524;14.104;2023-07-08T03:22:18;7.80;;;7.00;;
3121;SDS011;1571;52.524;14.104;2023-07-08T03:24:46;6.70;;;6.20;;
3121;SDS011;1571;52.524;14.104;2023-07-08T03:27:18;7.70;;;7.00;;
3121;SDS011;1571;52.524;14.104;2023-07-08T03:29:49;8.80;;;8.20;;
3121;SDS011;1571;52.524;14.104;2023-07-08T03:32:18;7.90;;;7.10;;
3121;SDS011;1571;52.524;14.104;2023-07-08T03:34:48;9.10;;;7.40;;
3121;SDS011;1571;52.524;14.104;2023-07-08T03:37:16;8.53;;;7.83;;
3121;SDS011;1571;52.524;14.104;2023-07-08T03:39:44;7.37;;;6.80;;
3121;SDS011;1571;52.524;14.104;2023-07-08T03:42:13;8.13;;;7.63;;
3121;SDS011;1571;52.524;14.104;2023-07-08T03:44:41;7.47;;;6.97;;
3121;SDS011;1571;52.524;14.104;2023-07-08T03:47:09;7.50;;;7.00;;
3121;SDS011;1571;52.524;14.104;2023-07-08T03:49:39;8.47;;;7.77;;
3121;SDS011;1571;52.524;14.104;2023-07-08T03:52:08;7.57;;;6.97;;
3121;SDS011;1571;52.524;14.104;2023-07-08T03:54:44;7.00;;;6.53;;
3121;SDS011;1571;52.524;14.104;2023-07-08T03:57:13;7.67;;;7.03;;
3121;SDS011;1571;52.524;14.104;2023-07-08T03:59:44;8.33;;;7.40;;
3121;SDS011;1571;52.524;14.104;2023-07-08T04:02:13;7.20;;;6.70;;
3121;SDS011;1571;52.524;14.104;2023-07-08T04:04:41;10.03;;;7.70;;
3121;SDS011;1571;52.524;14.104;2023-07-08T04:07:11;7.20;;;6.60;;
3121;SDS011;1571;52.524;14.104;2023-07-08T04:09:39;7.43;;;6.73;;
3121;SDS011;1571;52.524;14.104;2023-07-08T04:12:10;7.20;;;6.70;;
3121;SDS011;1571;52.524;14.104;2023-07-08T04:14:39;7.67;;;7.00;;
3121;SDS011;1571;52.524;14.104;2023-07-08T04:17:09;7.47;;;6.83;;
3121;SDS011;1571;52.524;14.104;2023-07-08T04:19:39;6.97;;;6.37;;
3121;SDS011;1571;52.524;14.104;2023-07-08T04:22:12;6.43;;;6.00;;
3121;SDS011;1571;52.524;14.104;2023-07-08T04:24:40;7.00;;;6.50;;
3121;SDS011;1571;52.524;14.104;2023-07-08T04:27:09;7.97;;;6.13;;
3121;SDS011;1571;52.524;14.104;2023-07-08T04:29:42;7.70;;;7.10;;
3121;SDS011;1571;52.524;14.104;2023-07-08T04:32:10;6.77;;;6.27;;
3121;SDS011;1571;52.524;14.104;2023-07-08T04:34:39;7.40;;;6.80;;
3121;SDS011;1571;52.524;14.104;2023-07-08T04:37:08;8.23;;;6.20;;
3121;SDS011;1571;52.524;14.104;2023-07-08T04:39:40;6.77;;;6.27;;
3121;SDS011;1571;52.524;14.104;2023-07-08T04:42:08;6.93;;;6.40;;
3121;SDS011;1571;52.524;14.104;2023-07-08T04:44:36;6.80;;;6.30;;
3121;SDS011;1571;52.524;14.104;2023-07-08T04:47:05;7.40;;;6.80;;
3121;SDS011;1571;52.524;14.104;2023-07-08T04:49:33;5.77;;;5.37;;
3121;SDS011;1571;52.524;14.104;2023-07-08T04:52:02;7.57;;;6.93;;
3121;SDS011;1571;52.524;14.104;2023-07-08T04:54:30;6.63;;;6.13;;
3121;SDS011;1571;52.524;14.104;2023-07-08T04:57:00;6.60;;;6.20;;
3121;SDS011;1571;52.524;14.104;2023-07-08T04:59:28;6.37;;;5.97;;
3121;SDS011;1571;52.524;14.104;2023-07-08T05:02:01;7.70;;;7.00;;
3121;SDS011;1571;52.524;14.104;2023-07-08T05:04:30;6.27;;;5.67;;
3121;SDS011;1571;52.524;14.104;2023-07-08T05:06:58;7.00;;;6.23;;
3121;SDS011;1571;52.524;14.104;2023-07-08T05:09:26;6.40;;;5.90;;
3121;SDS011;1571;52.524;14.104;2023-07-08T05:11:54;5.93;;;5.53;;
3121;SDS011;1571;52.524;14.104;2023-07-08T05:14:24;6.37;;;5.87;;
3121;SDS011;1571;52.524;14.104;2023-07-08T05:16:52;5.50;;;5.10;;
3121;SDS011;1571;52.524;14.104;2023-07-08T05:19:20;7.23;;;6.03;;
3121;SDS011;1571;52.524;14.104;2023-07-08T05:21:50;5.83;;;5.23;;
3121;SDS011;1571;52.524;14.104;2023-07-08T05:24:20;9.73;;;5.87;;
3121;SDS011;1571;52.524;14.104;2023-07-08T05:26:48;4.90;;;4.60;;
3121;SDS011;1571;52.524;14.104;2023-07-08T05:29:16;5.53;;;5.13;;
3121;SDS011;1571;52.524;14.104;2023-07-08T05:31:46;6.00;;;5.60;;
3121;SDS011;1571;52.524;14.104;2023-07-08T05:34:15;6.07;;;5.67;;
3121;SDS011;1571;52.524;14.104;2023-07-08T05:36:43;6.43;;;5.83;;
3121;SDS011;1571;52.524;14.104;2023-07-08T05:39:11;6.67;;;6.07;;
3121;SDS011;1571;52.524;14.104;2023-07-08T05:41:40;5.90;;;5.60;;
3121;SDS011;1571;52.524;14.104;2023-07-08T05:44:08;5.43;;;5.10;;
3121;SDS011;1571;52.524;14.104;2023-07-08T05:46:37;7.53;;;5.40;;
3121;SDS011;1571;52.524;14.104;2023-07-08T05:49:07;6.90;;;5.83;;
3121;SDS011;1571;52.524;14.104;2023-07-08T05:51:36;6.17;;;5.67;;
3121;SDS011;1571;52.524;14.104;2023-07-08T05:54:04;5.97;;;5.50;;
3121;SDS011;1571;52.524;14.104;2023-07-08T05:56:32;5.90;;;5.30;;
3121;SDS011;1571;52.524;14.104;2023-07-08T05:59:01;6.13;;;5.60;;
3121;SDS011;1571;52.524;14.104;2023-07-08T06:01:29;6.90;;;6.20;;
3121;SDS011;1571;52.524;14.104;2023-07-08T06:03:58;6.53;;;6.03;;
3121;SDS011;1571;52.524;14.104;2023-07-08T06:06:27;6.60;;;6.10;;
3121;SDS011;1571;52.524;14.104;2023-07-08T06:08:56;5.37;;;4.93;;
3121;SDS011;1571;52.524;14.104;2023-07-08T06:11:24;6.47;;;5.30;;
3121;SDS011;1571;52.524;14.104;2023-07-08T06:13:53;6.70;;;6.10;;
3121;SDS011;1571;52.524;14.104;2023-07-08T06:16:21;5.93;;;5.33;;
3121;SDS011;1571;52.524;14.104;2023-07-08T06:18:53;6.27;;;5.77;;
3121;SDS011;1571;52.524;14.104;2023-07-08T06:21:23;5.57;;;5.07;;
3121;SDS011;1571;52.524;14.104;2023-07-08T06:23:53;5.13;;;4.83;;
3121;SDS011;1571;52.524;14.104;2023-07-08T06:26:21;7.17;;;5.60;;
3121;SDS011;1571;52.524;14.104;2023-07-08T06:28:50;7.73;;;5.20;;
3121;SDS011;1571;52.524;14.104;2023-07-08T06:31:18;6.87;;;5.57;;
3121;SDS011;1571;52.524;14.104;2023-07-08T06:33:47;6.67;;;4.90;;
3121;SDS011;1571;52.524;14.104;2023-07-08T06:36:15;5.17;;;4.67;;
3121;SDS011;1571;52.524;14.104;2023-07-08T06:38:44;5.70;;;5.00;;
3121;SDS011;1571;52.524;14.104;2023-07-08T06:41:14;5.07;;;4.80;;
3121;SDS011;1571;52.524;14.104;2023-07-08T06:43:42;4.97;;;4.50;;
3121;SDS011;1571;52.524;14.104;2023-07-08T06:46:15;6.20;;;5.60;;
3121;SDS011;1571;52.524;14.104;2023-07-08T06:48:45;5.80;;;5.43;;
3121;SDS011;1571;52.524;14.104;2023-07-08T06:51:14;4.53;;;4.23;;
3121;SDS011;1571;52.524;14.104;2023-07-08T06:53:42;5.00;;;4.73;;
3121;SDS011;1571;52.524;14.104;2023-07-08T06:56:10;4.97;;;4.43;;
3121;SDS011;1571;52.524;14.104;2023-07-08T06:58:40;5.20;;;4.70;;
3121;SDS011;1571;52.524;14.104;2023-07-08T07:01:08;5.00;;;4.70;;
3121;SDS011;1571;52.524;14.104;2023-07-08T07:03:37;5.50;;;5.10;;
3121;SDS011;1571;52.524;14.104;2023-07-08T07:06:05;5.17;;;4.87;;
3121;SDS011;1571;52.524;14.104;2023-07-08T07:08:33;5.60;;;4.83;;
3121;SDS011;1571;52.524;14.104;2023-07-08T07:11:02;5.53;;;4.73;;
3121;SDS011;1571;52.524;14.104;2023-07-08T07:13:30;4.97;;;4.60;;
3121;SDS011;1571;52.524;14.104;2023-07-08T07:16:01;4.20;;;3.90;;
3121;SDS011;1571;52.524;14.104;2023-07-08T07:18:30;4.93;;;4.50;;
3121;SDS011;1571;52.524;14.104;2023-07-08T07:20:58;5.17;;;4.60;;
3121;SDS011;1571;52.524;14.104;2023-07-08T07:23:27;7.90;;;5.13;;
3121;SDS011;1571;52.524;14.104;2023-07-08T07:25:55;4.30;;;4.00;;
3121;SDS011;1571;52.524;14.104;2023-07-08T07:28:24;4.83;;;4.43;;
3121;SDS011;1571;52.524;14.104;2023-07-08T07:30:55;5.07;;;4.63;;
3121;SDS011;1571;52.524;14.104;2023-07-08T07:33:26;8.97;;;4.23;;
3121;SDS011;1571;52.524;14.104;2023-07-08T07:35:55;4.07;;;3.77;;
3121;SDS011;1571;52.524;14.104;2023-07-08T07:38:23;4.90;;;4.50;;
3121;SDS011;1571;52.524;14.104;2023-07-08T07:40:55;4.90;;;4.50;;
3121;SDS011;1571;52.524;14.104;2023-07-08T07:43:26;4.07;;;3.53;;
3121;SDS011;1571;52.524;14.104;2023-07-08T07:45:55;4.57;;;4.17;;
3121;SDS011;1571;52.524;14.104;2023-07-08T07:48:24;3.63;;;3.43;;
3121;SDS011;1571;52.524;14.104;2023-07-08T07:50:53;4.50;;;4.20;;
3121;SDS011;1571;52.524;14.104;2023-07-08T07:53:22;3.77;;;3.47;;
3121;SDS011;1571;52.524;14.104;2023-07-08T07:55:55;3.40;;;3.20;;
3121;SDS011;1571;52.524;14.104;2023-07-08T07:58:25;3.80;;;2.80;;
3121;SDS011;1571;52.524;14.104;2023-07-08T08:00:53;5.60;;;3.77;;
3121;SDS011;1571;52.524;14.104;2023-07-08T08:03:21;3.00;;;2.77;;
3121;SDS011;1571;52.524;14.104;2023-07-08T08:05:50;3.83;;;3.50;;
3121;SDS011;1571;52.524;14.104;2023-07-08T08:08:20;2.97;;;2.80;;
3121;SDS011;1571;52.524;14.104;2023-07-08T08:10:49;2.63;;;2.43;;
3121;SDS011;1571;52.524;14.104;2023-07-08T08:13:17;4.70;;;3.23;;
3121;SDS011;1571;52.524;14.104;2023-07-08T08:15:46;3.90;;;3.03;;
3121;SDS011;1571;52.524;14.104;2023-07-08T08:18:14;3.80;;;2.80;;
3121;SDS011;1571;52.524;14.104;2023-07-08T08:20:42;2.40;;;2.23;;
3121;SDS011;1571;52.524;14.104;2023-07-08T08:23:10;3.43;;;2.40;;
3121;SDS011;1571;52.524;14.104;2023-07-08T08:25:40;3.57;;;3.30;;
3121;SDS011;1571;52.524;14.104;2023-07-08T08:28:08;2.57;;;2.47;;
3121;SDS011;1571;52.524;14.104;2023-07-08T08:30:36;3.10;;;2.90;;
3121;SDS011;1571;52.524;14.104;2023-07-08T08:33:05;3.67;;;2.97;;
3121;SDS011;1571;52.524;14.104;2023-07-08T08:35:33;2.60;;;2.50;;
3121;SDS011;1571;52.524;14.104;2023-07-08T08:38:03;2.90;;;2.70;;
3121;SDS011;1571;52.524;14.104;2023-07-08T08:40:32;2.57;;;2.37;;
3121;SDS011;1571;52.524;14.104;2023-07-08T08:43:03;4.63;;;2.80;;
3121;SDS011;1571;52.524;14.104;2023-07-08T08:45:36;2.77;;;2.57;;
3121;SDS011;1571;52.524;14.104;2023-07-08T08:48:13;2.57;;;2.37;;
3121;SDS011;1571;52.524;14.104;2023-07-08T08:50:44;2.60;;;2.40;;
3121;SDS011;1571;52.524;14.104;2023-07-08T08:53:19;2.03;;;1.93;;
3121;SDS011;1571;52.524;14.104;2023-07-08T08:55:49;2.43;;;2.33;;
3121;SDS011;1571;52.524;14.104;2023-07-08T08:58:26;3.27;;;3.07;;
3121;SDS011;1571;52.524;14.104;2023-07-08T09:00:59;2.10;;;2.00;;
3121;SDS011;1571;52.524;14.104;2023-07-08T09:03:34;3.13;;;2.80;;
3121;SDS011;1571;52.524;14.104;2023-07-08T09:06:14;2.87;;;2.60;;
3121;SDS011;1571;52.524;14.104;2023-07-08T09:08:46;1.97;;;1.87;;
3121;SDS011;1571;52.524;14.104;2023-07-08T09:11:21;2.20;;;2.00;;
3121;SDS011;1571;52.524;14.104;2023-07-08T09:13:59;2.10;;;2.00;;
3121;SDS011;1571;52.524;14.104;2023-07-08T09:16:32;2.73;;;2.50;;
3121;SDS011;1571;52.524;14.104;2023-07-08T09:19:10;3.27;;;2.50;;
3121;SDS011;1571;52.524;14.104;2023-07-08T09:21:43;2.63;;;2.53;;
3121;SDS011;1571;52.524;14.104;2023-07-08T09:24:16;3.00;;;2.80;;
3121;SDS011;1571;52.524;14.104;2023-07-08T09:26:49;2.40;;;2.30;;
3121;SDS011;1571;52.524;14.104;2023-07-08T09:29:21;3.00;;;2.23;;
3121;SDS011;1571;52.524;14.104;2023-07-08T09:31:50;2.23;;;2.13;;
3121;SDS011;1571;52.524;14.104;2023-07-08T09:34:20;1.70;;;1.60;;
3121;SDS011;1571;52.524;14.104;2023-07-08T09:36:50;2.23;;;2.13;;
3121;SDS011;1571;52.524;14.104;2023-07-08T09:39:21;4.40;;;2.07;;
3121;SDS011;1571;52.524;14.104;2023-07-08T09:41:49;2.27;;;2.17;;
3121;SDS011;1571;52.524;14.104;2023-07-08T09:44:20;2.27;;;2.17;;
3121;SDS011;1571;52.524;14.104;2023-07-08T09:46:53;3.13;;;2.57;;
3121;SDS011;1571;52.524;14.104;2023-07-08T09:49:23;1.90;;;1.80;;
3121;SDS011;1571;52.524;14.104;2023-07-08T09:51:55;2.40;;;2.30;;
3121;SDS011;1571;52.524;14.104;2023-07-08T09:54:24;2.00;;;1.90;;
3121;SDS011;1571;52.524;14.104;2023-07-08T09:56:57;2.43;;;1.83;;
3121;SDS011;1571;52.524;14.104;2023-07-08T09:59:30;2.03;;;1.93;;
3121;SDS011;1571;52.524;14.104;2023-07-08T10:02:03;3.80;;;1.87;;
3121;SDS011;1571;52.524;14.104;2023-07-08T10:04:53;2.63;;;1.77;;
3121;SDS011;1571;52.524;14.104;2023-07-08T10:07:24;3.27;;;1.77;;
3121;SDS011;1571;52.524;14.104;2023-07-08T10:09:57;1.57;;;1.47;;
3121;SDS011;1571;52.524;14.104;2023-07-08T10:12:27;3.13;;;1.83;;
3121;SDS011;1571;52.524;14.104;2023-07-08T10:14:59;1.60;;;1.50;;
3121;SDS011;1571;52.524;14.104;2023-07-08T10:17:33;1.80;;;1.70;;
3121;SDS011;1571;52.524;14.104;2023-07-08T10:20:07;1.80;;;1.70;;
3121;SDS011;1571;52.524;14.104;2023-07-08T10:22:41;1.67;;;1.57;;
3121;SDS011;1571;52.524;14.104;2023-07-08T10:25:23;1.60;;;1.50;;
3121;SDS011;1571;52.524;14.104;2023-07-08T10:27:57;1.53;;;1.50;;
3121;SDS011;1571;52.524;14.104;2023-07-08T10:30:38;2.20;;;1.60;;
3121;SDS011;1571;52.524;14.104;2023-07-08T10:33:30;1.77;;;1.67;;
3121;SDS011;1571;52.524;14.104;2023-07-08T10:36:10;1.37;;;1.27;;
3121;SDS011;1571;52.524;14.104;2023-07-08T10:38:48;1.90;;;1.80;;
3121;SDS011;1571;52.524;14.104;2023-07-08T10:41:30;1.97;;;1.87;;
3121;SDS011;1571;52.524;14.104;2023-07-08T10:44:07;2.00;;;1.90;;
3121;SDS011;1571;52.524;14.104;2023-07-08T10:46:46;1.60;;;1.50;;
3121;SDS011;1571;52.524;14.104;2023-07-08T10:49:26;1.40;;;1.40;;
3121;SDS011;1571;52.524;14.104;2023-07-08T10:52:07;2.03;;;1.63;;
3121;SDS011;1571;52.524;14.104;2023-07-08T10:54:58;1.83;;;1.73;;
3121;SDS011;1571;52.524;14.104;2023-07-08T10:57:39;2.40;;;1.50;;
3121;SDS011;1571;52.524;14.104;2023-07-08T11:00:24;1.87;;;1.77;;
3121;SDS011;1571;52.524;14.104;2023-07-08T11:03:10;1.90;;;1.80;;
3121;SDS011;1571;52.524;14.104;2023-07-08T11:05:58;1.43;;;1.33;;
3121;SDS011;1571;52.524;14.104;2023-07-08T11:08:31;2.43;;;1.70;;
3121;SDS011;1571;52.524;14.104;2023-07-08T11:11:06;1.57;;;1.47;;
3121;SDS011;1571;52.524;14.104;2023-07-08T11:13:44;1.40;;;1.30;;
3121;SDS011;1571;52.524;14.104;2023-07-08T11:16:18;2.00;;;1.90;;
3121;SDS011;1571;52.524;14.104;2023-07-08T11:18:54;1.73;;;1.63;;
3121;SDS011;1571;52.524;14.104;2023-07-08T11:21:29;1.90;;;1.80;;
3121;SDS011;1571;52.524;14.104;2023-07-08T11:24:04;2.00;;;1.90;;
3121;SDS011;1571;52.524;14.104;2023-07-08T11:26:40;3.50;;;1.87;;
3121;SDS011;1571;52.524;14.104;2023-07-08T11:29:16;1.80;;;1.70;;
3121;SDS011;1571;52.524;14.104;2023-07-08T11:31:48;2.10;;;1.80;;
3121;SDS011;1571;52.524;14.104;2023-07-08T11:34:19;2.37;;;1.90;;
3121;SDS011;1571;52.524;14.104;2023-07-08T11:36:49;1.80;;;1.60;;
3121;SDS011;1571;52.524;14.104;2023-07-08T11:39:26;2.00;;;1.90;;
3121;SDS011;1571;52.524;14.104;2023-07-08T11:42:03;1.93;;;1.70;;
3121;SDS011;1571;52.524;14.104;2023-07-08T11:44:41;2.10;;;1.90;;
3121;SDS011;1571;52.524;14.104;2023-07-08T11:47:12;2.13;;;1.93;;
3121;SDS011;1571;52.524;14.104;2023-07-08T11:49:46;2.30;;;2.07;;
3121;SDS011;1571;52.524;14.104;2023-07-08T11:52:17;3.20;;;1.70;;
3121;SDS011;1571;52.524;14.104;2023-07-08T11:54:47;4.30;;;2.00;;
3121;SDS011;1571;52.524;14.104;2023-07-08T11:57:24;2.10;;;2.00;;
3121;SDS011;1571;52.524;14.104;2023-07-08T12:00:16;2.03;;;1.93;;
3121;SDS011;1571;52.524;14.104;2023-07-08T12:02:51;1.57;;;1.47;;
3121;SDS011;1571;52.524;14.104;2023-07-08T12:05:30;3.23;;;2.30;;
3121;SDS011;1571;52.524;14.104;2023-07-08T12:08:00;2.07;;;1.97;;
3121;SDS011;1571;52.524;14.104;2023-07-08T12:10:32;2.03;;;1.70;;
3121;SDS011;1571;52.524;14.104;2023-07-08T12:13:02;1.50;;;1.40;;
3121;SDS011;1571;52.524;14.104;2023-07-08T12:15:32;1.90;;;1.80;;
3121;SDS011;1571;52.524;14.104;2023-07-08T12:18:02;4.57;;;1.97;;
3121;SDS011;1571;52.524;14.104;2023-07-08T12:20:36;2.50;;;2.30;;
3121;SDS011;1571;52.524;14.104;2023-07-08T12:23:09;2.40;;;2.30;;
3121;SDS011;1571;52.524;14.104;2023-07-08T12:25:39;2.20;;;2.10;;
3121;SDS011;1571;52.524;14.104;2023-07-08T12:28:08;2.50;;;2.30;;
3121;SDS011;1571;52.524;14.104;2023-07-08T12:30:39;2.80;;;1.73;;
3121;SDS011;1571;52.524;14.104;2023-07-08T12:33:09;2.10;;;2.00;;
3121;SDS011;1571;52.524;14.104;2023-07-08T12:35:42;2.27;;;1.77;;
3121;SDS011;1571;52.524;14.104;2023-07-08T12:38:14;1.83;;;1.73;;
3121;SDS011;1571;52.524;14.104;2023-07-08T12:40:48;2.10;;;2.00;;
3121;SDS011;1571;52.524;14.104;2023-07-08T12:43:18;1.43;;;1.33;;
3121;SDS011;1571;52.524;14.104;2023-07-08T12:45:46;1.67;;;1.57;;
3121;SDS011;1571;52.524;14.104;2023-07-08T12:48:14;2.00;;;1.80;;
3121;SDS011;1571;52.524;14.104;2023-07-08T12:50:44;5.10;;;2.03;;
3121;SDS011;1571;52.524;14.104;2023-07-08T12:53:13;2.37;;;2.20;;
3121;SDS011;1571;52.524;14.104;2023-07-08T12:55:42;1.87;;;1.77;;
3121;SDS011;1571;52.524;14.104;2023-07-08T12:58:13;2.40;;;2.07;;
3121;SDS011;1571;52.524;14.104;2023-07-08T13:00:47;3.00;;;2.23;;
3121;SDS011;1571;52.524;14.104;2023-07-08T13:03:16;2.27;;;2.17;;
3121;SDS011;1571;52.524;14.104;2023-07-08T13:05:50;2.20;;;2.00;;
3121;SDS011;1571;52.524;14.104;2023-07-08T13:08:21;3.23;;;1.53;;
3121;SDS011;1571;52.524;14.104;2023-07-08T13:10:52;2.13;;;1.83;;
3121;SDS011;1571;52.524;14.104;2023-07-08T13:13:26;3.53;;;1.90;;
3121;SDS011;1571;52.524;14.104;2023-07-08T13:15:58;4.20;;;1.63;;
3121;SDS011;1571;52.524;14.104;2023-07-08T13:18:28;1.70;;;1.60;;
3121;SDS011;1571;52.524;14.104;2023-07-08T13:21:00;1.97;;;1.87;;
3121;SDS011;1571;52.524;14.104;2023-07-08T13:23:31;1.70;;;1.60;;
3121;SDS011;1571;52.524;14.104;2023-07-08T13:26:00;2.00;;;1.90;;
3121;SDS011;1571;52.524;14.104;2023-07-08T13:28:29;1.97;;;1.77;;
3121;SDS011;1571;52.524;14.104;2023-07-08T13:31:14;5.93;;;2.00;;
3121;SDS011;1571;52.524;14.104;2023-07-08T13:33:48;1.80;;;1.63;;
3121;SDS011;1571;52.524;14.104;2023-07-08T13:36:19;2.00;;;1.90;;
3121;SDS011;1571;52.524;14.104;2023-07-08T13:38:50;3.33;;;2.57;;
3121;SDS011;1571;52.524;14.104;2023-07-08T13:41:20;2.43;;;2.23;;
3121;SDS011;1571;52.524;14.104;2023-07-08T13:43:51;4.70;;;2.50;;
3121;SDS011;1571;52.524;14.104;2023-07-08T13:46:28;2.47;;;2.10;;
3121;SDS011;1571;52.524;14.104;2023-07-08T13:49:00;2.40;;;2.30;;
3121;SDS011;1571;52.524;14.104;2023-07-08T13:51:32;2.50;;;2.20;;
3121;SDS011;1571;52.524;14.104;2023-07-08T13:54:01;1.90;;;1.80;;
3121;SDS011;1571;52.524;14.104;2023-07-08T13:56:41;2.30;;;2.10;;
3121;SDS011;1571;52.524;14.104;2023-07-08T13:59:15;1.80;;;1.70;;
3121;SDS011;1571;52.524;14.104;2023-07-08T14:01:45;1.83;;;1.73;;
3121;SDS011;1571;52.524;14.104;2023-07-08T14:04:14;1.73;;;1.63;;
3121;SDS011;1571;52.524;14.104;2023-07-08T14:06:48;4.87;;;2.20;;
3121;SDS011;1571;52.524;14.104;2023-07-08T14:09:17;1.53;;;1.43;;
3121;SDS011;1571;52.524;14.104;2023-07-08T14:11:48;2.53;;;2.20;;
3121;SDS011;1571;52.524;14.104;2023-07-08T14:14:17;1.80;;;1.70;;
3121;SDS011;1571;52.524;14.104;2023-07-08T14:16:48;2.00;;;1.90;;
3121;SDS011;1571;52.524;14.104;2023-07-08T14:19:19;2.57;;;1.83;;
3121;SDS011;1571;52.524;14.104;2023-07-08T14:21:53;2.10;;;2.00;;
3121;SDS011;1571;52.524;14.104;2023-07-08T14:24:24;2.43;;;1.60;;
3121;SDS011;1571;52.524;14.104;2023-07-08T14:26:53;1.87;;;1.77;;
3121;SDS011;1571;52.524;14.104;2023-07-08T14:29:22;1.63;;;1.53;;
3121;SDS011;1571;52.524;14.104;2023-07-08T14:31:50;4.50;;;1.90;;
3121;SDS011;1571;52.524;14.104;2023-07-08T14:34:20;3.53;;;2.00;;
3121;SDS011;1571;52.524;14.104;2023-07-08T14:36:52;2.63;;;1.77;;
3121;SDS011;1571;52.524;14.104;2023-07-08T14:39:21;2.13;;;2.03;;
3121;SDS011;1571;52.524;14.104;2023-07-08T14:41:49;2.03;;;1.93;;
3121;SDS011;1571;52.524;14.104;2023-07-08T14:44:20;2.53;;;2.30;;
3121;SDS011;1571;52.524;14.104;2023-07-08T14:46:50;1.70;;;1.60;;
3121;SDS011;1571;52.524;14.104;2023-07-08T14:49:18;2.30;;;2.20;;
3121;SDS011;1571;52.524;14.104;2023-07-08T14:51:48;2.17;;;2.07;;
3121;SDS011;1571;52.524;14.104;2023-07-08T14:54:18;2.17;;;1.80;;
3121;SDS011;1571;52.524;14.104;2023-07-08T14:56:47;2.13;;;2.03;;
3121;SDS011;1571;52.524;14.104;2023-07-08T14:59:17;2.00;;;1.90;;
3121;SDS011;1571;52.524;14.104;2023-07-08T15:01:48;2.77;;;2.57;;
3121;SDS011;1571;52.524;14.104;2023-07-08T15:04:18;2.70;;;2.60;;
3121;SDS011;1571;52.524;14.104;2023-07-08T15:06:47;3.10;;;1.90;;
3121;SDS011;1571;52.524;14.104;2023-07-08T15:09:17;3.67;;;1.80;;
3121;SDS011;1571;52.524;14.104;2023-07-08T15:11:46;2.10;;;2.00;;
3121;SDS011;1571;52.524;14.104;2023-07-08T15:14:16;2.80;;;1.40;;
3121;SDS011;1571;52.524;14.104;2023-07-08T15:16:47;1.63;;;1.43;;
3121;SDS011;1571;52.524;14.104;2023-07-08T15:19:15;4.23;;;1.20;;
3121;SDS011;1571;52.524;14.104;2023-07-08T15:21:45;3.70;;;2.20;;
3121;SDS011;1571;52.524;14.104;2023-07-08T15:24:14;1.57;;;1.47;;